LSGG Airport Information

Runway Information
Runway 04 Length 12795 ft width 164 ft Elevation 1411 ft Threshold 1082 ft Heading 46
Runway 22 Length 12795 ft Width 164 ft Elevation 1365 ft Threshold N/A Heading 226
Runway 04L Length 2700 ft width 98 ft Elevation 1378 ft Threshold 613 ft Heading 46
Runway 22R Length 2700 ft Width 98 ft Elevation 1393 ft Threshold 994 ft Heading 226
Airport Frequencies
Type APP Name APP Frequency 120.3 MHZ
Type ARR Name ARR Frequency 136.25 MHZ
Type ATIS Name ATIS Frequency 135.575 MHZ
Type DEP Name DEP Frequency 119.525 MHZ
Type GND Name GND Frequency 121.675 MHZ
Type GTE Name APN Frequency 121.75 MHZ
Type TWR Name TWR Frequency 118.7 MHZ
Airport Navaids
Type NDB Name Gland Frequency 375 KHZ
Type VOR-DME Name Geneva Cointrin Frequency 115750 KHZ
Type VOR-DME Name Passeiry Frequency 116600 KHZ
Airport Weather Information & NOTAM
ADDS - METARS form results

(0304 UTC 12 August 2022)
Data provider http://aviationweather.gov/metar/data/
 
METAR text: LSGG 120250Z AUTO VRB01KT 9999 NCD 18/12 Q1016 NOSIG
Conditions at: LSGG (GENEVA/COINTRIN , CH) observed 0250 UTC 12 August 2022
Temperature: 18.0°C (64°F)
Dewpoint: 12.0°C (54°F) [RH = 68%]
Pressure (altimeter): 30.00 inches Hg (1016.0 mb)
Winds: variable direction winds at 1 MPH (1 knots; 0.5 m/s)
Visibility: 6 or more miles (10+ km)
Ceiling: at least 12,000 feet AGL
Clouds: sky clear below 12,000 feet AGL
Weather: no significant weather observed at this time

METAR text: LSGG 120220Z AUTO VRB01KT 9999 NCD 18/12 Q1017 NOSIG
Conditions at: LSGG (GENEVA/COINTRIN , CH) observed 0220 UTC 12 August 2022
Temperature: 18.0°C (64°F)
Dewpoint: 12.0°C (54°F) [RH = 68%]
Pressure (altimeter): 30.03 inches Hg (1017.0 mb)
Winds: variable direction winds at 1 MPH (1 knots; 0.5 m/s)
Visibility: 6 or more miles (10+ km)
Ceiling: at least 12,000 feet AGL
Clouds: sky clear below 12,000 feet AGL
Weather: no significant weather observed at this time

Forecast for: LSGG (GENEVA/COINTRIN , CH)
Text: TAF LSGG 120225Z 1203/1309 VRB02KT CAVOK TX31/1215Z TN17/1204Z TN17/1304Z
Forecast period: 0300 to 0700 UTC 12 August 2022
Forecast type: FROM: standard forecast or significant change
Winds: variable direction winds at 2 MPH (2 knots; 1.0 m/s)
Visibility: 6 or more miles (10+ km)
Ceiling: unknown
Clouds: missing
Weather: no significant weather forecast for this period
Text: BECMG 1207/1209 04010KT
Forecast period: 0700 UTC 12 August 2022 to 0900 UTC 13 August 2022
Forecast type: BECOMING: Conditions expected to become as follows by 0900 UTC 12 August 2022
Winds: from the NE (40 degrees) at 12 MPH (10 knots; 5.1 m/s)
Visibility: 6 or more miles (10+ km)
Ceiling: unknown
Clouds: missing
Weather: no significant weather forecast for this period